Kuujjuarapik, Canada
Current Conditions -  °F | °C
As of 7:00 PM on Wednesday 22 Oct 2014 (Local Time) from CYGW Reporting Station
Broken Clouds Broken Clouds  
Wind Chill: 37°   Ceiling: 13000
Heat Index: 45°   Visibility: 9mi
Dew Point: 27°   Wind: 18mph
Humidity: 49%   Direction: 160°SSE
Pressure: 30.1"   Gusts: 28mph
Location:  55.26°N, 77.78°W
Report Text: CYGW 222300Z AUTO 16016G24KT 9SM BKN130 07/M03 A3010 RMK SLP194
Loading
Personal Weather Stations






























Interactive Weather Map
Tropical Storm Tracking
New forecast layout! Learn more

10-Day Weather Forecast

Advertisements
Track Severe Weather on mobile